Time;durP1;ratioP1;P1;durP2;ratioP2;P2;SDS_P1;SDS_P2;PMS_P1;PMS_P2;Temp;Humidity;BMP_temperature;BMP_pressure;BME280_temperature;BME280_humidity;BME280_pressure;Samples;Min_cycle;Max_cycle;Signal;HPM_P1;HPM_P2
2023/09/15 00:00:25;;;;;;;424.00;379.40;;;;;;;23.94;53.81;99562.16;324916;30;1816;-72
2023/09/15 00:00:36;;;;;;;431.60;386.38;;;;;;;24.01;54.00;99563.25;321882;30;880;-72
2023/09/15 00:00:47;;;;;;;436.35;390.77;;;;;;;24.04;53.82;99565.63;318075;30;2454;-72
2023/09/15 00:00:57;;;;;;;425.52;380.35;;;;;;;24.03;53.81;99569.28;317859;30;2771;-72
2023/09/15 00:01:08;;;;;;;421.87;376.80;;;;;;;24.02;54.22;99559.59;317109;31;802;-72
2023/09/15 00:01:19;;;;;;;419.30;374.70;;;;;;;24.05;54.05;99571.81;318298;30;3402;-72
2023/09/15 00:01:30;;;;;;;426.27;381.42;;;;;;;24.03;53.74;99563.94;316078;31;3585;-72
2023/09/15 00:01:41;;;;;;;430.47;385.50;;;;;;;24.01;54.01;99565.09;313476;31;3636;-71
2023/09/15 00:01:52;;;;;;;421.67;376.90;;;;;;;24.00;53.84;99561.56;314981;31;988;-71
2023/09/15 00:02:04;;;;;;;415.58;371.02;;;;;;;24.02;53.64;99564.09;312436;31;3682;-71
2023/09/15 00:02:15;;;;;;;413.17;368.92;;;;;;;24.00;53.65;99571.44;314289;31;3178;-71
2023/09/15 00:02:25;;;;;;;417.13;372.90;;;;;;;24.00;53.53;99568.75;315472;31;2276;-71
2023/09/15 00:02:36;;;;;;;416.83;372.60;;;;;;;24.02;53.58;99562.25;312863;31;1604;-71
2023/09/15 00:02:47;;;;;;;417.75;373.58;;;;;;;24.03;53.86;99558.59;311979;31;2868;-71
2023/09/15 00:02:58;;;;;;;420.27;376.13;;;;;;;24.04;53.37;99562.97;309459;31;3755;-71
2023/09/15 00:03:08;;;;;;;420.85;376.48;;;;;;;24.05;53.30;99561.97;307327;32;888;-71
2023/09/15 00:03:18;;;;;;;421.07;376.73;;;;;;;24.01;53.22;99560.59;307893;31;4111;-71
2023/09/15 00:03:29;;;;;;;423.80;379.17;;;;;;;24.01;53.51;99562.41;305870;32;4639;-72
2023/09/15 00:03:39;;;;;;;420.87;376.47;;;;;;;24.02;53.62;99562.25;305596;31;4540;-71
2023/09/15 00:03:51;;;;;;;418.83;374.33;;;;;;;24.04;53.46;99565.63;306254;32;1008;-71
2023/09/15 00:04:05;;;;;;;421.08;376.55;;;;;;;24.07;53.64;99561.81;304627;32;5217;-71
2023/09/15 00:04:16;;;;;;;420.30;375.67;;;;;;;24.08;53.35;99564.34;305046;32;4696;-72
2023/09/15 00:04:27;;;;;;;416.77;372.45;;;;;;;24.08;53.17;99563.50;305272;32;3306;-71
2023/09/15 00:04:38;;;;;;;409.25;365.15;;;;;;;24.09;53.44;99563.34;305224;32;1317;-71
2023/09/15 00:04:49;;;;;;;417.33;373.27;;;;;;;24.10;53.34;99562.38;300663;32;3438;-71
2023/09/15 00:04:59;;;;;;;428.42;383.83;;;;;;;24.13;53.14;99555.88;297540;32;4281;-71
2023/09/15 00:05:12;;;;;;;433.63;388.83;;;;;;;24.15;52.96;99559.25;298285;32;4916;-72
2023/09/15 00:05:24;;;;;;;426.98;382.20;;;;;;;24.14;53.10;99555.72;299784;32;1138;-72
2023/09/15 00:05:34;;;;;;;418.00;373.63;;;;;;;24.13;53.20;99569.25;296910;32;5379;-72
2023/09/15 00:05:46;;;;;;;415.77;371.17;;;;;;;24.06;53.09;99560.13;295256;33;6197;-72
2023/09/15 00:05:57;;;;;;;413.60;369.02;;;;;;;24.04;52.95;99565.63;296730;32;6350;-72
2023/09/15 00:06:07;;;;;;;410.80;366.30;;;;;;;24.06;53.28;99563.66;296861;33;1427;-72
2023/09/15 00:06:17;;;;;;;415.65;371.35;;;;;;;24.07;52.76;99562.66;295060;33;6478;-71
2023/09/15 00:06:28;;;;;;;420.07;375.67;;;;;;;24.09;52.75;99562.50;296245;33;6453;-71
2023/09/15 00:06:39;;;;;;;420.17;375.83;;;;;;;24.12;52.76;99560.38;295812;33;1459;-71
2023/09/15 00:06:49;;;;;;;420.17;375.83;;;;;;;24.13;52.64;99564.75;294685;33;4886;-71
2023/09/15 00:06:59;;;;;;;425.63;381.13;;;;;;;24.15;52.68;99562.75;293725;33;4801;-72
2023/09/15 00:07:10;;;;;;;426.00;381.33;;;;;;;24.15;52.89;99562.75;292569;33;6173;-72
2023/09/15 00:07:20;;;;;;;425.63;380.90;;;;;;;24.15;52.86;99567.25;297482;33;862;-72
2023/09/15 00:07:31;;;;;;;426.73;382.20;;;;;;;24.11;52.93;99561.38;295259;33;7070;-72
2023/09/15 00:07:42;;;;;;;426.15;381.67;;;;;;;24.11;52.69;99563.19;290485;33;7259;-72
2023/09/15 00:07:52;;;;;;;418.27;374.17;;;;;;;24.12;52.67;99568.41;288080;34;1393;-72
2023/09/15 00:08:04;;;;;;;418.17;374.08;;;;;;;24.12;52.81;99564.88;287015;34;8370;-71
2023/09/15 00:08:14;;;;;;;423.38;379.08;;;;;;;24.12;52.79;99562.22;285226;34;8975;-71
2023/09/15 00:08:25;;;;;;;424.70;380.17;;;;;;;24.10;52.80;99565.03;285379;34;8640;-71
2023/09/15 00:08:35;;;;;;;424.27;379.65;;;;;;;24.10;52.61;99564.19;289063;34;1299;-71
2023/09/15 00:08:47;;;;;;;424.43;379.70;;;;;;;24.08;52.71;99560.81;287511;34;9052;-71
2023/09/15 00:08:57;;;;;;;430.38;385.52;;;;;;;24.06;52.51;99558.31;286524;34;6171;-71
2023/09/15 00:09:14;;;;;;;430.07;385.20;;;;;;;24.06;52.73;99563.66;286267;34;889;-71
2023/09/15 00:09:24;;;;;;;425.23;380.42;;;;;;;24.01;52.81;99563.25;282641;34;5050;-71
2023/09/15 00:09:35;;;;;;;424.10;379.40;;;;;;;24.00;52.88;99561.56;275283;35;1058;-71
2023/09/15 00:09:45;;;;;;;429.05;384.52;;;;;;;24.01;52.88;99560.59;273917;35;9603;-71
2023/09/15 00:09:55;;;;;;;425.70;381.23;;;;;;;24.02;52.77;99562.25;272415;35;10967;-71
2023/09/15 00:10:07;;;;;;;425.23;380.77;;;;;;;24.04;52.77;99557.63;278033;35;927;-71
2023/09/15 00:10:19;;;;;;;426.70;382.15;;;;;;;24.05;52.79;99561.97;277419;35;10870;-71
2023/09/15 00:12:16;;;;;;;405.69;356.55;;;;;;;24.09;52.39;99558.00;2500934;27;20507;-71
2023/09/15 00:12:27;;;;;;;421.63;377.33;;;;;;;24.10;52.77;99554.34;355832;27;923;-72
2023/09/15 00:12:42;;;;;;;426.80;382.30;;;;;;;24.12;52.71;99560.38;354357;27;1208;-72
2023/09/15 00:12:52;;;;;;;418.40;374.17;;;;;;;24.15;52.34;99562.75;352302;28;1347;-72
2023/09/15 00:13:03;;;;;;;419.97;375.47;;;;;;;24.14;52.83;99549.53;351359;28;1211;-72
2023/09/15 00:13:15;;;;;;;413.03;368.83;;;;;;;24.13;52.61;99559.38;349686;28;1578;-72
2023/09/15 00:13:27;;;;;;;414.95;370.80;;;;;;;24.13;52.34;99551.38;348650;28;899;-72
2023/09/15 00:13:37;;;;;;;422.60;378.58;;;;;;;24.14;52.34;99549.53;347514;28;1436;-72
2023/09/15 00:13:47;;;;;;;430.53;386.30;;;;;;;24.13;52.41;99559.38;350043;28;1207;-72
2023/09/15 00:13:58;;;;;;;430.70;386.40;;;;;;;24.11;52.23;99561.38;350003;28;888;-72
2023/09/15 00:14:12;;;;;;;426.75;382.63;;;;;;;24.05;52.30;99559.28;351847;28;890;-72
2023/09/15 00:14:23;;;;;;;427.20;382.95;;;;;;;24.01;52.49;99563.25;350021;28;915;-72
2023/09/15 00:14:34;;;;;;;424.70;380.48;;;;;;;23.97;52.50;99564.53;347878;28;1598;-72
2023/09/15 00:14:46;;;;;;;418.95;375.00;;;;;;;23.93;52.49;99563.16;347314;28;977;-72
2023/09/15 00:14:57;;;;;;;420.55;376.63;;;;;;;23.88;52.64;99562.75;346827;28;1299;-72
2023/09/15 00:15:08;;;;;;;426.23;381.98;;;;;;;23.84;52.64;99553.34;347258;28;832;-72
2023/09/15 00:15:18;;;;;;;431.08;386.48;;;;;;;23.84;52.74;99562.22;349860;28;1646;-72
2023/09/15 00:15:29;;;;;;;426.60;381.90;;;;;;;23.84;52.92;99554.19;349984;28;1333;-72
2023/09/15 00:15:41;;;;;;;429.85;385.08;;;;;;;23.86;52.78;99562.91;350061;28;1231;-72
2023/09/15 00:15:51;;;;;;;427.85;383.30;;;;;;;23.88;52.68;99560.94;350068;28;1216;-71
2023/09/15 00:16:02;;;;;;;430.03;385.43;;;;;;;23.84;52.80;99558.69;347093;28;2006;-71
2023/09/15 00:16:12;;;;;;;425.83;381.63;;;;;;;23.77;52.91;99561.16;347237;28;1321;-71
2023/09/15 00:16:23;;;;;;;429.60;385.00;;;;;;;23.76;53.04;99558.63;348489;28;915;-71
2023/09/15 00:16:34;;;;;;;427.90;383.42;;;;;;;23.76;53.26;99561.28;345941;28;1445;-71
2023/09/15 00:16:44;;;;;;;424.80;380.30;;;;;;;23.73;53.25;99557.09;348337;28;946;-71
2023/09/15 00:16:55;;;;;;;413.70;369.77;;;;;;;23.74;53.19;99558.78;348556;28;1614;-71
2023/09/15 00:17:05;;;;;;;408.35;364.40;;;;;;;23.75;53.06;99562.28;347212;28;1199;-71
2023/09/15 00:17:16;;;;;;;409.65;365.67;;;;;;;23.77;53.36;99562.97;348786;28;844;-71
2023/09/15 00:17:26;;;;;;;417.33;373.10;;;;;;;23.79;52.91;99564.53;349445;28;2040;-71
2023/09/15 00:17:39;;;;;;;419.45;375.27;;;;;;;23.82;53.16;99566.06;350197;28;1286;-71
2023/09/15 00:17:49;;;;;;;410.15;366.27;;;;;;;23.81;53.14;99564.38;344633;28;1559;-71
2023/09/15 00:18:00;;;;;;;407.87;364.03;;;;;;;23.80;53.10;99563.53;346972;28;1530;-71
2023/09/15 00:18:10;;;;;;;417.70;373.50;;;;;;;23.81;53.07;99562.53;347927;28;1079;-71
2023/09/15 00:18:20;;;;;;;421.40;376.93;;;;;;;23.85;53.19;99560.38;348653;28;1063;-71
2023/09/15 00:18:31;;;;;;;414.27;370.17;;;;;;;23.87;53.12;99564.59;347399;28;1413;-71
2023/09/15 00:18:41;;;;;;;412.00;367.90;;;;;;;23.90;52.95;99560.78;347853;28;1220;-71
2023/09/15 00:18:52;;;;;;;412.90;368.83;;;;;;;23.91;52.88;99570.47;347167;28;1441;-72
2023/09/15 00:19:03;;;;;;;421.00;376.77;;;;;;;23.89;52.53;99562.63;348654;28;1262;-72
2023/09/15 00:19:16;;;;;;;420.55;376.45;;;;;;;23.89;52.74;99561.78;347270;28;1515;-72
2023/09/15 00:19:26;;;;;;;419.15;374.95;;;;;;;23.87;52.49;99566.41;347568;28;1999;-72
2023/09/15 00:19:40;;;;;;;418.60;374.13;;;;;;;23.87;52.90;99571.75;346780;28;1851;-72
2023/09/15 00:19:51;;;;;;;422.13;377.50;;;;;;;23.86;52.76;99562.06;345852;28;1371;-72
2023/09/15 00:20:05;;;;;;;420.90;376.70;;;;;;;23.87;52.66;99563.75;347074;28;1047;-72
2023/09/15 00:20:20;;;;;;;417.45;372.98;;;;;;;23.85;52.46;99565.72;343324;28;924;-72
2023/09/15 00:20:30;;;;;;;424.25;379.38;;;;;;;23.82;52.64;99566.06;345751;28;1430;-72
2023/09/15 00:20:41;;;;;;;428.65;383.67;;;;;;;23.82;52.97;99566.06;341038;28;1342;-72
2023/09/15 00:20:51;;;;;;;420.05;375.48;;;;;;;23.79;52.86;99561.84;340259;29;1588;-72
2023/09/15 00:21:02;;;;;;;418.07;373.57;;;;;;;23.79;52.93;99566.34;337776;29;1929;-71
2023/09/15 00:21:14;;;;;;;421.23;376.42;;;;;;;23.76;52.84;99566.66;339341;29;1400;-71
2023/09/15 00:21:25;;;;;;;422.80;378.17;;;;;;;23.73;53.15;99569.59;340060;29;1598;-71
2023/09/15 00:21:38;;;;;;;423.90;379.23;;;;;;;23.74;52.83;99569.47;337937;29;1097;-71
2023/09/15 00:21:48;;;;;;;422.15;377.65;;;;;;;23.75;53.15;99564.97;339278;29;1362;-71
2023/09/15 00:21:59;;;;;;;421.53;377.00;;;;;;;23.78;53.25;99567.34;338888;29;1453;-71
2023/09/15 00:22:09;;;;;;;421.52;377.02;;;;;;;23.80;53.07;99565.34;338797;29;1427;-71
2023/09/15 00:22:19;;;;;;;421.43;376.87;;;;;;;23.80;53.08;99573.38;337271;29;2065;-71
2023/09/15 00:22:30;;;;;;;421.27;376.67;;;;;;;23.82;52.98;99571.41;330247;29;1984;-71
2023/09/15 00:22:49;;;;;;;418.20;373.88;;;;;;;23.85;52.92;99566.56;331231;29;1943;-71
2023/09/15 00:22:59;;;;;;;418.13;374.10;;;;;;;23.89;52.82;99572.47;333578;29;2008;-71
2023/09/15 00:23:09;;;;;;;423.37;378.97;;;;;;;23.89;52.92;99572.47;328802;30;3268;-71
2023/09/15 00:23:20;;;;;;;420.17;375.67;;;;;;;23.89;52.58;99572.47;328395;30;1685;-71
2023/09/15 00:23:31;;;;;;;424.10;379.35;;;;;;;23.89;52.72;99572.47;329162;30;986;-71
2023/09/15 00:23:42;;;;;;;418.23;373.73;;;;;;;23.91;52.72;99570.47;327105;30;848;-71
2023/09/15 00:23:52;;;;;;;414.63;370.27;;;;;;;23.93;52.83;99568.50;325613;30;1095;-71
2023/09/15 00:24:05;;;;;;;415.00;370.43;;;;;;;23.94;52.70;99564.84;327758;30;1407;-71
2023/09/15 00:24:16;;;;;;;415.73;371.23;;;;;;;23.96;52.77;99568.22;327826;30;1463;-71
2023/09/15 00:24:26;;;;;;;419.05;374.67;;;;;;;23.98;52.54;99571.56;325784;30;2068;-71
2023/09/15 00:24:37;;;;;;;432.25;387.90;;;;;;;24.00;52.54;99572.25;323822;30;2365;-71
2023/09/15 00:24:47;;;;;;;434.03;389.50;;;;;;;24.02;52.54;99564.94;326547;30;1598;-71
2023/09/15 00:24:57;;;;;;;437.83;392.97;;;;;;;24.02;52.76;99572.97;326122;30;2965;-71
2023/09/15 00:25:09;;;;;;;429.70;385.08;;;;;;;24.05;52.79;99572.66;320687;30;2686;-71
2023/09/15 00:25:25;;;;;;;427.50;382.50;;;;;;;24.05;52.55;99567.31;317230;31;791;-71
2023/09/15 00:25:36;;;;;;;426.48;381.80;;;;;;;24.05;52.71;99572.66;315948;31;1781;-71
2023/09/15 00:25:46;;;;;;;428.37;384.00;;;;;;;24.06;52.76;99571.69;316166;31;929;-71
2023/09/15 00:25:59;;;;;;;424.02;379.58;;;;;;;24.06;52.59;99571.69;317690;31;1434;-71
2023/09/15 00:26:10;;;;;;;421.80;377.35;;;;;;;24.07;52.32;99573.34;317987;30;2206;-71
2023/09/15 00:26:23;;;;;;;421.27;376.97;;;;;;;24.08;52.46;99577.72;319529;30;852;-71
2023/09/15 00:26:33;;;;;;;419.23;375.05;;;;;;;24.08;52.28;99577.72;313050;31;1269;-71
2023/09/15 00:26:44;;;;;;;417.80;373.07;;;;;;;24.04;52.13;99575.50;308127;31;3405;-71
2023/09/15 00:26:54;;;;;;;415.95;371.20;;;;;;;24.02;52.11;99567.63;306012;31;3655;-71
2023/09/15 00:27:05;;;;;;;411.87;367.43;;;;;;;24.02;52.31;99575.63;304005;32;909;-71
2023/09/15 00:27:15;;;;;;;411.70;367.63;;;;;;;24.02;52.28;99578.31;299346;32;3579;-71
2023/09/15 00:27:27;;;;;;;410.45;366.67;;;;;;;24.04;52.58;99570.97;300943;32;2791;-71
2023/09/15 00:27:37;;;;;;;417.15;373.08;;;;;;;24.05;52.30;99572.66;302494;32;2474;-71
2023/09/15 00:27:48;;;;;;;421.55;377.15;;;;;;;24.06;52.60;99577.03;306260;32;856;-71
2023/09/15 00:28:00;;;;;;;418.17;373.88;;;;;;;24.07;52.55;99575.19;305167;32;2486;-71
2023/09/15 00:28:12;;;;;;;420.10;375.88;;;;;;;24.06;52.46;99574.34;306725;31;2271;-72
2023/09/15 00:28:22;;;;;;;418.50;374.63;;;;;;;24.08;52.54;99577.72;304498;32;2766;-72
2023/09/15 00:28:32;;;;;;;414.70;371.02;;;;;;;24.10;52.42;99575.72;304044;32;1289;-71
2023/09/15 00:28:43;;;;;;;413.10;369.50;;;;;;;24.07;52.38;99570.69;307993;31;3965;-71
2023/09/15 00:28:53;;;;;;;409.38;365.88;;;;;;;24.06;52.34;99569.00;306741;32;4564;-71
2023/09/15 00:29:04;;;;;;;411.90;368.30;;;;;;;24.02;52.61;99572.97;306254;32;773;-71
2023/09/15 00:29:14;;;;;;;415.48;371.60;;;;;;;24.00;52.60;99574.94;312160;31;4468;-71
2023/09/15 00:29:25;;;;;;;425.17;380.93;;;;;;;24.00;52.65;99572.25;311925;31;4593;-71
2023/09/15 00:29:36;;;;;;;427.92;383.50;;;;;;;24.01;52.37;99570.44;308646;31;3146;-71
2023/09/15 00:29:46;;;;;;;431.88;387.42;;;;;;;23.98;52.40;99571.56;305619;32;1352;-71
2023/09/15 00:29:57;;;;;;;426.50;382.20;;;;;;;23.99;52.39;99573.25;304485;32;3508;-71
2023/09/15 00:30:09;;;;;;;418.30;374.15;;;;;;;23.97;52.37;99572.56;305343;32;3372;-71
2023/09/15 00:30:20;;;;;;;410.50;366.55;;;;;;;23.92;52.34;99572.16;305209;32;939;-71
2023/09/15 00:30:30;;;;;;;414.58;370.52;;;;;;;23.92;52.61;99579.34;306577;32;3430;-71
2023/09/15 00:30:40;;;;;;;419.27;375.17;;;;;;;23.91;52.56;99575.84;303846;32;3855;-71
2023/09/15 00:30:51;;;;;;;427.80;383.67;;;;;;;23.91;52.25;99573.16;302132;32;5344;-71
2023/09/15 00:31:02;;;;;;;428.88;384.55;;;;;;;23.90;52.34;99574.16;300932;32;1147;-71
2023/09/15 00:31:12;;;;;;;427.27;382.67;;;;;;;23.91;52.57;99569.63;298929;32;6106;-71
2023/09/15 00:31:23;;;;;;;424.83;380.13;;;;;;;23.89;52.22;99572.47;297674;32;5886;-72
2023/09/15 00:31:34;;;;;;;431.55;386.83;;;;;;;23.90;52.38;99574.16;296840;33;1315;-72
2023/09/15 00:31:45;;;;;;;430.58;386.13;;;;;;;23.86;52.52;99570.94;299427;32;6144;-72
2023/09/15 00:31:56;;;;;;;431.83;387.20;;;;;;;23.87;52.65;99574.44;294711;33;4559;-72
2023/09/15 00:32:07;;;;;;;428.73;383.70;;;;;;;23.85;52.60;99571.06;294422;32;4616;-72
2023/09/15 00:32:17;;;;;;;435.65;390.58;;;;;;;23.85;52.26;99577.25;297949;33;1030;-72
2023/09/15 00:32:27;;;;;;;425.63;381.27;;;;;;;23.84;52.55;99569.38;295372;33;4847;-72
2023/09/15 00:32:39;;;;;;;419.15;375.13;;;;;;;23.85;52.63;99568.41;292455;33;4972;-72
2023/09/15 00:32:49;;;;;;;414.05;369.83;;;;;;;23.88;52.21;99568.09;290040;34;1459;-72
2023/09/15 00:33:00;;;;;;;419.48;374.90;;;;;;;23.90;52.26;99566.13;288832;33;6492;-72
2023/09/15 00:33:10;;;;;;;422.17;377.37;;;;;;;23.90;52.30;99571.47;287881;33;7564;-72
2023/09/15 00:33:21;;;;;;;422.00;377.65;;;;;;;23.94;52.61;99566.66;290835;33;8395;-71
2023/09/15 00:33:31;;;;;;;416.87;372.53;;;;;;;23.94;52.35;99567.50;295927;33;894;-71
2023/09/15 00:33:42;;;;;;;408.42;364.42;;;;;;;23.96;52.30;99568.22;289949;33;8442;-71
2023/09/15 00:33:52;;;;;;;412.03;368.13;;;;;;;23.93;52.66;99573.84;287723;34;9149;-71
2023/09/15 00:34:04;;;;;;;414.00;370.27;;;;;;;23.82;52.56;99568.72;288862;34;1224;-71
2023/09/15 00:34:14;;;;;;;418.35;374.40;;;;;;;23.81;52.86;99569.72;284907;34;6539;-71
2023/09/15 00:34:25;;;;;;;416.92;372.85;;;;;;;23.84;52.76;99574.72;285629;34;6644;-71
2023/09/15 00:34:35;;;;;;;417.63;373.37;;;;;;;23.84;52.57;99564.88;286957;34;1724;-71
2023/09/15 00:34:45;;;;;;;422.07;377.80;;;;;;;23.82;52.41;99571.41;286065;34;6732;-71
2023/09/15 00:34:56;;;;;;;420.38;376.13;;;;;;;23.83;52.46;99570.38;287633;34;6940;-71
2023/09/15 00:35:06;;;;;;;422.93;378.33;;;;;;;23.85;52.63;99565.72;285730;34;8258;-71
2023/09/15 00:35:21;;;;;;;415.45;371.13;;;;;;;23.86;52.68;99567.41;284533;34;1079;-71
2023/09/15 00:35:31;;;;;;;413.30;369.40;;;;;;;23.89;52.56;99572.47;276343;35;1465;-71
2023/09/15 00:35:42;;;;;;;411.30;367.42;;;;;;;23.89;52.43;99567.13;275133;35;12403;-71
2023/09/15 00:37:34;;;;;;;398.39;347.41;;;;;;;23.50;52.73;99567.25;2492075;27;20263;-71
2023/09/15 00:37:47;;;;;;;414.20;370.37;;;;;;;23.52;52.90;99570.63;354685;27;973;-71
2023/09/15 00:37:58;;;;;;;412.60;368.52;;;;;;;23.54;53.05;99565.19;349707;28;1289;-71
2023/09/15 00:38:08;;;;;;;416.00;371.63;;;;;;;23.53;52.92;99572.34;350568;28;1609;-72
2023/09/15 00:38:20;;;;;;;410.60;366.40;;;;;;;23.55;52.88;99562.34;350142;28;1073;-72
2023/09/15 00:38:31;;;;;;;413.30;368.98;;;;;;;23.58;52.92;99558.56;348569;28;1643;-72
2023/09/15 00:38:41;;;;;;;407.60;363.67;;;;;;;23.60;52.93;99566.41;347301;28;1274;-72
2023/09/15 00:38:52;;;;;;;416.00;371.83;;;;;;;23.63;52.41;99563.47;347452;28;1103;-72
2023/09/15 00:39:03;;;;;;;416.42;372.23;;;;;;;23.66;52.56;99560.50;347247;28;844;-72
2023/09/15 00:39:13;;;;;;;420.65;376.05;;;;;;;23.68;52.38;99562.03;347988;28;1598;-72
2023/09/15 00:39:24;;;;;;;421.77;376.83;;;;;;;23.73;52.08;99572.28;348518;28;978;-72
2023/09/15 00:39:35;;;;;;;424.55;379.55;;;;;;;23.76;52.38;99561.28;349739;28;1460;-72
2023/09/15 00:39:45;;;;;;;423.03;378.40;;;;;;;23.74;52.06;99564.13;347762;28;1564;-72
2023/09/15 00:39:55;;;;;;;422.90;378.55;;;;;;;23.68;52.27;99570.06;347378;28;954;-72
2023/09/15 00:40:08;;;;;;;424.13;379.80;;;;;;;23.70;52.09;99562.72;346782;28;1393;-72
2023/09/15 00:40:20;;;;;;;426.73;382.13;;;;;;;23.72;52.64;99563.41;347366;28;966;-72
2023/09/15 00:40:30;;;;;;;423.67;379.05;;;;;;;23.75;52.30;99570.31;347446;28;892;-72
2023/09/15 00:40:41;;;;;;;423.30;378.60;;;;;;;23.75;52.07;99568.47;346010;28;1153;-72
2023/09/15 00:40:51;;;;;;;427.10;382.50;;;;;;;23.74;52.24;99563.28;346018;28;830;-72
2023/09/15 00:41:01;;;;;;;423.92;379.67;;;;;;;23.76;52.35;99569.31;343097;28;822;-72
2023/09/15 00:41:12;;;;;;;419.83;375.53;;;;;;;23.76;52.42;99569.31;347936;28;1388;-72
2023/09/15 00:41:23;;;;;;;410.52;366.55;;;;;;;23.72;51.93;99562.56;345665;28;1220;-72
2023/09/15 00:41:33;;;;;;;410.07;366.07;;;;;;;23.70;52.35;99561.88;348718;28;1212;-72
2023/09/15 00:41:43;;;;;;;412.67;368.50;;;;;;;23.70;52.27;99567.22;348502;28;867;-72
2023/09/15 00:41:54;;;;;;;414.30;369.93;;;;;;;23.67;52.06;99562.19;347364;28;1348;-72
2023/09/15 00:42:04;;;;;;;420.63;375.73;;;;;;;23.69;52.43;99570.88;344643;28;1302;-72
2023/09/15 00:42:15;;;;;;;421.07;376.13;;;;;;;23.69;52.52;99565.53;345807;28;1141;-72
2023/09/15 00:42:25;;;;;;;418.13;373.25;;;;;;;23.65;52.18;99565.00;346038;28;880;-72
2023/09/15 00:42:37;;;;;;;412.20;367.83;;;;;;;23.65;52.22;99566.81;346005;28;1014;-72
2023/09/15 00:42:49;;;;;;;412.65;368.23;;;;;;;23.58;52.79;99568.41;344616;28;1797;-72
2023/09/15 00:43:00;;;;;;;414.58;370.17;;;;;;;23.52;52.39;99567.97;344542;28;1366;-72
2023/09/15 00:43:10;;;;;;;412.83;368.35;;;;;;;23.51;52.61;99574.28;345797;28;1235;-73
2023/09/15 00:43:20;;;;;;;409.83;365.73;;;;;;;23.48;52.60;99569.25;345930;28;900;-72
2023/09/15 00:43:31;;;;;;;404.60;360.43;;;;;;;23.47;52.55;99572.91;345687;28;1087;-72
2023/09/15 00:43:41;;;;;;;402.08;358.35;;;;;;;23.49;52.87;99570.91;344436;28;1485;-72
2023/09/15 00:43:51;;;;;;;402.67;358.87;;;;;;;23.52;52.72;99573.31;344283;28;909;-72
2023/09/15 00:44:02;;;;;;;403.33;359.60;;;;;;;23.53;52.45;99561.66;342954;28;1213;-72
2023/09/15 00:44:12;;;;;;;407.43;363.53;;;;;;;23.58;52.52;99568.41;343211;28;1233;-72
2023/09/15 00:44:23;;;;;;;404.77;360.90;;;;;;;23.59;52.65;99565.56;343528;28;1730;-72
2023/09/15 00:44:34;;;;;;;404.83;360.80;;;;;;;23.63;52.38;99568.81;341988;28;1500;-72
2023/09/15 00:44:45;;;;;;;403.80;359.67;;;;;;;23.64;52.32;99567.81;339223;29;1660;-72
2023/09/15 00:44:55;;;;;;;401.33;357.20;;;;;;;23.66;52.44;99568.50;340909;28;846;-72
2023/09/15 00:45:09;;;;;;;412.77;368.47;;;;;;;23.68;52.43;99569.22;341844;28;1001;-72
2023/09/15 00:45:19;;;;;;;426.77;382.10;;;;;;;23.68;52.32;99567.38;339206;29;1333;-72
2023/09/15 00:45:30;;;;;;;429.33;384.58;;;;;;;23.68;52.39;99572.72;336068;29;1272;-72
2023/09/15 00:45:40;;;;;;;417.77;373.43;;;;;;;23.66;52.29;99565.84;338362;29;1408;-72
2023/09/15 00:45:50;;;;;;;412.23;368.23;;;;;;;23.67;52.48;99567.53;335434;29;1355;-72
2023/09/15 00:46:02;;;;;;;411.27;367.45;;;;;;;23.65;51.91;99566.81;335311;29;1757;-72
2023/09/15 00:46:13;;;;;;;417.88;373.80;;;;;;;23.65;51.98;99574.84;335219;29;1665;-72
2023/09/15 00:46:23;;;;;;;418.50;374.17;;;;;;;23.63;52.27;99574.16;333027;29;1966;-72
2023/09/15 00:46:34;;;;;;;422.67;377.97;;;;;;;23.59;52.22;99568.25;339392;29;841;-72
2023/09/15 00:46:44;;;;;;;420.02;375.35;;;;;;;23.59;51.78;99570.94;336616;29;854;-72
2023/09/15 00:46:55;;;;;;;415.97;371.40;;;;;;;23.59;52.16;99570.09;333974;29;1410;-72
2023/09/15 00:47:05;;;;;;;409.43;365.23;;;;;;;23.56;52.31;99576.56;335835;29;1662;-72
2023/09/15 00:47:16;;;;;;;405.75;361.77;;;;;;;23.51;52.22;99574.28;336830;29;2604;-72
2023/09/15 00:47:26;;;;;;;413.60;369.60;;;;;;;23.45;52.45;99569.53;336742;29;1380;-72
2023/09/15 00:47:38;;;;;;;409.75;365.85;;;;;;;23.44;52.34;99570.50;334211;29;1880;-72
2023/09/15 00:47:58;;;;;;;410.45;366.42;;;;;;;23.43;52.27;99576.00;326713;30;1347;-72
2023/09/15 00:48:08;;;;;;;412.63;368.38;;;;;;;23.42;52.38;99568.97;326460;30;2060;-72
2023/09/15 00:48:18;;;;;;;403.35;359.55;;;;;;;23.46;52.32;99576.56;326716;30;858;-72
2023/09/15 00:48:29;;;;;;;404.17;360.07;;;;;;;23.46;51.65;99571.22;330758;29;2266;-72
2023/09/15 00:48:39;;;;;;;405.92;361.77;;;;;;;23.43;51.91;99573.34;331652;29;1573;-72
2023/09/15 00:48:51;;;;;;;413.50;368.87;;;;;;;23.44;51.93;99577.69;328019;30;1111;-72
2023/09/15 00:49:02;;;;;;;407.73;363.63;;;;;;;23.44;51.95;99567.84;328863;30;960;-72
2023/09/15 00:49:13;;;;;;;405.27;361.17;;;;;;;23.44;52.24;99573.19;330444;29;1488;-72
2023/09/15 00:49:23;;;;;;;397.80;354.23;;;;;;;23.48;52.25;99573.75;329848;29;1803;-72
2023/09/15 00:49:34;;;;;;;397.50;353.77;;;;;;;23.48;51.75;99573.75;324261;30;1282;-73
2023/09/15 00:49:45;;;;;;;400.02;356.17;;;;;;;23.47;51.74;99575.56;323387;30;2135;-72
2023/09/15 00:49:56;;;;;;;407.55;363.42;;;;;;;23.43;51.98;99571.50;321592;30;2442;-72
2023/09/15 00:50:06;;;;;;;409.13;365.17;;;;;;;23.45;52.04;99574.88;321825;30;1188;-72
2023/09/15 00:50:19;;;;;;;412.53;368.43;;;;;;;23.50;51.87;99577.09;321882;30;2753;-72
2023/09/15 00:50:31;;;;;;;415.75;371.52;;;;;;;23.54;52.00;99576.72;322759;30;2774;-72
2023/09/15 00:50:42;;;;;;;408.70;364.55;;;;;;;23.58;51.80;99576.41;319844;30;2866;-72
2023/09/15 00:50:52;;;;;;;407.88;363.70;;;;;;;23.61;51.80;99574.28;321773;30;1190;-72
2023/09/15 00:51:07;;;;;;;412.03;367.60;;;;;;;23.64;51.65;99575.84;320380;30;1903;-72
2023/09/15 00:51:17;;;;;;;410.10;366.13;;;;;;;23.67;51.51;99575.53;319209;30;1604;-72
2023/09/15 00:51:28;;;;;;;409.43;365.30;;;;;;;23.70;51.56;99577.91;317948;31;2348;-72
2023/09/15 00:51:38;;;;;;;408.58;364.27;;;;;;;23.66;51.10;99573.84;316736;31;2590;-72
2023/09/15 00:51:50;;;;;;;409.83;365.40;;;;;;;23.59;51.35;99573.59;316214;31;849;-72
2023/09/15 00:52:00;;;;;;;407.90;363.73;;;;;;;23.51;51.09;99579.63;316509;31;2770;-72
2023/09/15 00:52:11;;;;;;;417.52;373.30;;;;;;;23.46;51.44;99579.22;316270;31;3534;-72
2023/09/15 00:52:22;;;;;;;421.03;376.73;;;;;;;23.44;51.45;99583.03;316132;31;1239;-72
2023/09/15 00:52:33;;;;;;;417.10;373.00;;;;;;;23.43;51.41;99578.66;314585;31;3557;-72
2023/09/15 00:52:49;;;;;;;410.92;367.15;;;;;;;23.45;51.96;99579.38;316757;30;3599;-72
2023/09/15 00:53:04;;;;;;;408.38;364.48;;;;;;;23.47;51.76;99582.75;315772;31;3387;-72
2023/09/15 00:53:19;;;;;;;398.48;355.05;;;;;;;23.47;52.06;99575.56;312183;31;2634;-72
2023/09/15 00:53:30;;;;;;;395.10;351.85;;;;;;;23.43;51.75;99574.19;311644;31;2231;-72
2023/09/15 00:53:40;;;;;;;394.63;350.97;;;;;;;23.45;51.39;99574.88;308276;31;2867;-72
2023/09/15 00:53:50;;;;;;;396.13;352.42;;;;;;;23.49;51.17;99576.25;311615;31;1323;-72
2023/09/15 00:54:01;;;;;;;401.63;357.63;;;;;;;23.47;51.48;99578.25;310243;31;3687;-72
2023/09/15 00:54:12;;;;;;;404.63;360.77;;;;;;;23.49;51.16;99576.25;307149;31;3831;-72
2023/09/15 00:54:22;;;;;;;407.57;363.67;;;;;;;23.47;51.31;99580.91;308301;32;1330;-72
2023/09/15 00:54:33;;;;;;;408.23;364.08;;;;;;;23.45;51.24;99585.56;309809;31;4430;-72
2023/09/15 00:54:43;;;;;;;406.57;362.30;;;;;;;23.41;51.02;99577.97;308860;31;4500;-72